sensor_id;sensor_type;location;lat;lon;timestamp;pressure;altitude;pressure_sealevel;temperature;humidity
11672;BME280;5892;43.412;24.612;2023-05-18T00:00:45;99535.72;;;14.29;100.00
11672;BME280;5892;43.412;24.612;2023-05-18T00:03:12;99539.66;;;14.28;100.00
11672;BME280;5892;43.412;24.612;2023-05-18T00:05:39;99528.53;;;14.25;100.00
11672;BME280;5892;43.412;24.612;2023-05-18T00:08:07;99540.34;;;14.25;100.00
11672;BME280;5892;43.412;24.612;2023-05-18T00:10:34;99535.44;;;14.19;100.00
11672;BME280;5892;43.412;24.612;2023-05-18T00:13:02;99527.53;;;14.17;100.00
11672;BME280;5892;43.412;24.612;2023-05-18T00:15:29;99551.38;;;14.25;100.00
11672;BME280;5892;43.412;24.612;2023-05-18T00:17:56;99547.47;;;14.26;100.00
11672;BME280;5892;43.412;24.612;2023-05-18T00:20:23;99543.44;;;14.24;100.00
11672;BME280;5892;43.412;24.612;2023-05-18T00:22:51;99532.44;;;14.24;100.00
11672;BME280;5892;43.412;24.612;2023-05-18T00:25:18;99561.84;;;14.20;100.00
11672;BME280;5892;43.412;24.612;2023-05-18T00:27:45;99552.09;;;14.22;100.00
11672;BME280;5892;43.412;24.612;2023-05-18T00:30:15;99546.91;;;14.21;100.00
11672;BME280;5892;43.412;24.612;2023-05-18T00:32:42;99555.19;;;14.21;100.00
11672;BME280;5892;43.412;24.612;2023-05-18T00:35:09;99544.06;;;14.17;100.00
11672;BME280;5892;43.412;24.612;2023-05-18T00:37:36;99556.34;;;14.20;100.00
11672;BME280;5892;43.412;24.612;2023-05-18T00:40:04;99542.47;;;14.16;100.00
11672;BME280;5892;43.412;24.612;2023-05-18T00:42:32;99556.34;;;14.20;100.00
11672;BME280;5892;43.412;24.612;2023-05-18T00:44:59;99559.47;;;14.18;100.00
11672;BME280;5892;43.412;24.612;2023-05-18T00:47:27;99549.22;;;14.19;100.00
11672;BME280;5892;43.412;24.612;2023-05-18T00:49:54;99551.53;;;14.17;100.00
11672;BME280;5892;43.412;24.612;2023-05-18T00:52:21;99557.94;;;14.21;100.00
11672;BME280;5892;43.412;24.612;2023-05-18T00:54:49;99559.88;;;14.20;100.00
11672;BME280;5892;43.412;24.612;2023-05-18T00:57:17;99556.34;;;14.20;100.00
11672;BME280;5892;43.412;24.612;2023-05-18T00:59:45;99554.97;;;14.14;100.00
11672;BME280;5892;43.412;24.612;2023-05-18T01:02:12;99563.50;;;14.09;100.00
11672;BME280;5892;43.412;24.612;2023-05-18T01:04:41;99562.63;;;14.05;100.00
11672;BME280;5892;43.412;24.612;2023-05-18T01:07:09;99561.72;;;14.00;100.00
11672;BME280;5892;43.412;24.612;2023-05-18T01:09:37;99563.22;;;13.98;100.00
11672;BME280;5892;43.412;24.612;2023-05-18T01:12:08;99569.09;;;13.96;100.00
11672;BME280;5892;43.412;24.612;2023-05-18T01:14:45;99563.31;;;14.02;100.00
11672;BME280;5892;43.412;24.612;2023-05-18T01:17:22;99553.50;;;13.88;100.00
11672;BME280;5892;43.412;24.612;2023-05-18T01:20:18;99569.09;;;13.96;100.00
11672;BME280;5892;43.412;24.612;2023-05-18T01:23:00;99568.63;;;13.94;100.00
11672;BME280;5892;43.412;24.612;2023-05-18T01:25:45;99570.22;;;13.95;100.00
11672;BME280;5892;43.412;24.612;2023-05-18T01:28:17;99568.16;;;13.92;100.00
11672;BME280;5892;43.412;24.612;2023-05-18T01:30:45;99578.16;;;13.97;100.00
11672;BME280;5892;43.412;24.612;2023-05-18T01:33:13;99566.09;;;14.02;100.00
11672;BME280;5892;43.412;24.612;2023-05-18T01:35:40;99563.75;;;14.04;100.00
11672;BME280;5892;43.412;24.612;2023-05-18T01:38:13;99574.53;;;14.09;100.00
11672;BME280;5892;43.412;24.612;2023-05-18T01:40:47;99568.84;;;14.02;100.00
11672;BME280;5892;43.412;24.612;2023-05-18T01:43:20;99568.53;;;13.91;100.00
11672;BME280;5892;43.412;24.612;2023-05-18T01:45:51;99569.34;;;13.91;100.00
11672;BME280;5892;43.412;24.612;2023-05-18T01:48:23;99572.91;;;13.92;100.00
11672;BME280;5892;43.412;24.612;2023-05-18T01:50:54;99581.91;;;14.05;100.00
11672;BME280;5892;43.412;24.612;2023-05-18T01:53:24;99582.94;;;14.00;100.00
11672;BME280;5892;43.412;24.612;2023-05-18T01:55:54;99563.84;;;13.91;100.00
11672;BME280;5892;43.412;24.612;2023-05-18T01:58:23;99581.47;;;14.03;100.00
11672;BME280;5892;43.412;24.612;2023-05-18T02:00:50;99586.03;;;13.98;100.00
11672;BME280;5892;43.412;24.612;2023-05-18T02:03:17;99592.56;;;14.06;100.00
11672;BME280;5892;43.412;24.612;2023-05-18T02:05:44;99593.38;;;14.07;100.00
11672;BME280;5892;43.412;24.612;2023-05-18T02:08:11;99579.94;;;14.05;100.00
11672;BME280;5892;43.412;24.612;2023-05-18T02:10:38;99573.66;;;13.92;100.00
11672;BME280;5892;43.412;24.612;2023-05-18T02:13:05;99588.47;;;14.00;100.00
11672;BME280;5892;43.412;24.612;2023-05-18T02:15:33;99594.47;;;13.90;100.00
11672;BME280;5892;43.412;24.612;2023-05-18T02:18:00;99590.94;;;13.77;100.00
11672;BME280;5892;43.412;24.612;2023-05-18T02:20:27;99593.94;;;13.72;100.00
11672;BME280;5892;43.412;24.612;2023-05-18T02:22:57;99593.03;;;13.68;100.00
11672;BME280;5892;43.412;24.612;2023-05-18T02:25:25;99590.53;;;13.63;100.00
11672;BME280;5892;43.412;24.612;2023-05-18T02:27:51;99599.13;;;13.62;100.00
11672;BME280;5892;43.412;24.612;2023-05-18T02:30:19;99606.59;;;13.61;100.00
11672;BME280;5892;43.412;24.612;2023-05-18T02:32:47;99584.28;;;13.38;100.00
11672;BME280;5892;43.412;24.612;2023-05-18T02:35:14;99600.63;;;13.59;100.00
11672;BME280;5892;43.412;24.612;2023-05-18T02:37:41;99606.94;;;13.60;100.00
11672;BME280;5892;43.412;24.612;2023-05-18T02:40:10;99611.44;;;13.52;100.00
11672;BME280;5892;43.412;24.612;2023-05-18T02:42:37;99609.47;;;13.52;100.00
11672;BME280;5892;43.412;24.612;2023-05-18T02:45:05;99613.28;;;13.48;100.00
11672;BME280;5892;43.412;24.612;2023-05-18T02:47:33;99623.56;;;13.51;100.00
11672;BME280;5892;43.412;24.612;2023-05-18T02:50:01;99614.19;;;13.52;100.00
11672;BME280;5892;43.412;24.612;2023-05-18T02:52:28;99556.56;;;13.07;100.00
11672;BME280;5892;43.412;24.612;2023-05-18T02:54:55;99621.88;;;13.46;100.00
11672;BME280;5892;43.412;24.612;2023-05-18T02:57:22;99613.97;;;13.45;100.00
11672;BME280;5892;43.412;24.612;2023-05-18T02:59:48;99633.00;;;13.50;100.00
11672;BME280;5892;43.412;24.612;2023-05-18T03:02:15;99627.13;;;13.51;100.00
11672;BME280;5892;43.412;24.612;2023-05-18T03:04:42;99627.94;;;13.52;100.00
11672;BME280;5892;43.412;24.612;2023-05-18T03:07:10;99643.31;;;13.53;100.00
11672;BME280;5892;43.412;24.612;2023-05-18T03:09:37;99635.84;;;13.53;100.00
11672;BME280;5892;43.412;24.612;2023-05-18T03:12:05;99634.09;;;13.61;100.00
11672;BME280;5892;43.412;24.612;2023-05-18T03:14:31;99634.09;;;13.61;100.00
11672;BME280;5892;43.412;24.612;2023-05-18T03:16:58;99643.16;;;13.62;100.00
11672;BME280;5892;43.412;24.612;2023-05-18T03:19:25;99638.47;;;13.62;100.00
11672;BME280;5892;43.412;24.612;2023-05-18T03:21:52;99651.81;;;13.60;100.00
11672;BME280;5892;43.412;24.612;2023-05-18T03:24:21;99648.56;;;13.58;100.00
11672;BME280;5892;43.412;24.612;2023-05-18T03:26:50;99663.25;;;13.62;100.00
11672;BME280;5892;43.412;24.612;2023-05-18T03:29:18;99656.13;;;13.73;100.00
11672;BME280;5892;43.412;24.612;2023-05-18T03:31:46;99667.22;;;13.77;100.00
11672;BME280;5892;43.412;24.612;2023-05-18T03:34:13;99672.41;;;13.66;100.00
11672;BME280;5892;43.412;24.612;2023-05-18T03:36:40;99669.91;;;13.61;100.00
11672;BME280;5892;43.412;24.612;2023-05-18T03:39:11;99668.75;;;13.74;100.00
11672;BME280;5892;43.412;24.612;2023-05-18T03:41:40;99676.53;;;13.72;100.00
11672;BME280;5892;43.412;24.612;2023-05-18T03:44:07;99678.81;;;13.82;100.00
11672;BME280;5892;43.412;24.612;2023-05-18T03:46:34;99664.19;;;13.54;100.00
11672;BME280;5892;43.412;24.612;2023-05-18T03:49:01;99682.84;;;13.73;100.00
11672;BME280;5892;43.412;24.612;2023-05-18T03:51:29;99687.44;;;13.81;100.00
11672;BME280;5892;43.412;24.612;2023-05-18T03:53:56;99683.19;;;13.83;100.00
11672;BME280;5892;43.412;24.612;2023-05-18T03:56:23;99695.97;;;14.04;100.00
11672;BME280;5892;43.412;24.612;2023-05-18T03:58:51;99692.00;;;14.01;100.00
11672;BME280;5892;43.412;24.612;2023-05-18T04:01:18;99692.66;;;13.98;100.00
11672;BME280;5892;43.412;24.612;2023-05-18T04:03:48;99698.97;;;14.11;100.00
11672;BME280;5892;43.412;24.612;2023-05-18T04:06:15;99682.91;;;14.00;100.00
11672;BME280;5892;43.412;24.612;2023-05-18T04:08:42;99699.38;;;14.25;100.00
11672;BME280;5892;43.412;24.612;2023-05-18T04:11:10;99697.06;;;14.39;100.00
11672;BME280;5892;43.412;24.612;2023-05-18T04:13:37;99708.31;;;14.34;100.00
11672;BME280;5892;43.412;24.612;2023-05-18T04:16:06;99713.69;;;14.30;100.00
11672;BME280;5892;43.412;24.612;2023-05-18T04:18:35;99701.63;;;14.35;100.00
11672;BME280;5892;43.412;24.612;2023-05-18T04:21:01;99710.47;;;14.40;100.00
11672;BME280;5892;43.412;24.612;2023-05-18T04:23:30;99712.94;;;14.58;100.00
11672;BME280;5892;43.412;24.612;2023-05-18T04:25:57;99719.91;;;14.67;100.00
11672;BME280;5892;43.412;24.612;2023-05-18T04:28:24;99720.00;;;14.71;100.00
11672;BME280;5892;43.412;24.612;2023-05-18T04:30:52;99712.66;;;14.75;100.00
11672;BME280;5892;43.412;24.612;2023-05-18T04:33:21;99726.69;;;14.70;100.00
11672;BME280;5892;43.412;24.612;2023-05-18T04:35:50;99725.16;;;14.72;100.00
11672;BME280;5892;43.412;24.612;2023-05-18T04:38:19;99728.22;;;14.83;100.00
11672;BME280;5892;43.412;24.612;2023-05-18T04:40:47;99730.69;;;14.72;100.00
11672;BME280;5892;43.412;24.612;2023-05-18T04:43:14;99732.69;;;14.88;100.00
11672;BME280;5892;43.412;24.612;2023-05-18T04:45:42;99731.19;;;15.06;100.00
11672;BME280;5892;43.412;24.612;2023-05-18T04:48:10;99742.53;;;15.16;100.00
11672;BME280;5892;43.412;24.612;2023-05-18T04:50:40;99742.25;;;15.21;100.00
11672;BME280;5892;43.412;24.612;2023-05-18T04:53:07;99739.84;;;15.20;100.00
11672;BME280;5892;43.412;24.612;2023-05-18T04:55:36;99748.13;;;15.36;100.00
11672;BME280;5892;43.412;24.612;2023-05-18T04:58:07;99752.16;;;15.38;100.00
11672;BME280;5892;43.412;24.612;2023-05-18T05:00:35;99749.81;;;15.40;100.00
11672;BME280;5892;43.412;24.612;2023-05-18T05:03:02;99763.00;;;15.47;100.00
11672;BME280;5892;43.412;24.612;2023-05-18T05:05:28;99755.97;;;15.49;100.00
11672;BME280;5892;43.412;24.612;2023-05-18T05:07:57;99754.50;;;15.52;100.00
11672;BME280;5892;43.412;24.612;2023-05-18T05:10:24;99758.38;;;15.35;100.00
11672;BME280;5892;43.412;24.612;2023-05-18T05:12:52;99765.44;;;15.48;100.00
11672;BME280;5892;43.412;24.612;2023-05-18T05:15:19;99765.84;;;15.50;100.00
11672;BME280;5892;43.412;24.612;2023-05-18T05:17:46;99765.47;;;15.64;100.00
11672;BME280;5892;43.412;24.612;2023-05-18T05:20:14;99767.56;;;15.71;100.00
11672;BME280;5892;43.412;24.612;2023-05-18T05:22:41;99774.91;;;15.63;100.00
11672;BME280;5892;43.412;24.612;2023-05-18T05:25:09;99790.47;;;15.87;100.00
11672;BME280;5892;43.412;24.612;2023-05-18T05:27:36;99776.66;;;15.71;100.00
11672;BME280;5892;43.412;24.612;2023-05-18T05:30:04;99785.31;;;15.70;100.00
11672;BME280;5892;43.412;24.612;2023-05-18T05:32:31;99800.00;;;15.74;100.00
11672;BME280;5892;43.412;24.612;2023-05-18T05:34:59;99797.19;;;15.70;100.00
11672;BME280;5892;43.412;24.612;2023-05-18T05:37:26;99784.31;;;15.78;100.00
11672;BME280;5892;43.412;24.612;2023-05-18T05:39:54;99801.63;;;15.90;100.00
11672;BME280;5892;43.412;24.612;2023-05-18T05:42:22;99804.44;;;15.94;100.00
11672;BME280;5892;43.412;24.612;2023-05-18T05:44:49;99801.69;;;15.94;100.00
11672;BME280;5892;43.412;24.612;2023-05-18T05:47:16;99810.69;;;16.06;100.00
11672;BME280;5892;43.412;24.612;2023-05-18T05:49:43;99813.50;;;16.26;100.00
11672;BME280;5892;43.412;24.612;2023-05-18T05:52:10;99809.94;;;16.25;100.00
11672;BME280;5892;43.412;24.612;2023-05-18T05:54:38;99792.94;;;15.92;100.00
11672;BME280;5892;43.412;24.612;2023-05-18T05:57:05;99816.66;;;15.93;100.00
11672;BME280;5892;43.412;24.612;2023-05-18T05:59:34;99816.59;;;16.24;100.00
11672;BME280;5892;43.412;24.612;2023-05-18T06:02:01;99817.66;;;16.35;100.00
11672;BME280;5892;43.412;24.612;2023-05-18T06:04:27;99820.88;;;16.37;100.00
11672;BME280;5892;43.412;24.612;2023-05-18T06:06:54;99823.19;;;16.35;100.00
11672;BME280;5892;43.412;24.612;2023-05-18T06:09:21;99831.38;;;16.47;100.00
11672;BME280;5892;43.412;24.612;2023-05-18T06:11:48;99838.47;;;16.14;100.00
11672;BME280;5892;43.412;24.612;2023-05-18T06:14:15;99832.06;;;16.09;100.00
11672;BME280;5892;43.412;24.612;2023-05-18T06:16:43;99835.44;;;16.19;100.00
11672;BME280;5892;43.412;24.612;2023-05-18T06:19:10;99833.94;;;16.21;100.00
11672;BME280;5892;43.412;24.612;2023-05-18T06:21:37;99834.19;;;16.32;100.00
11672;BME280;5892;43.412;24.612;2023-05-18T06:24:04;99849.56;;;16.48;100.00
11672;BME280;5892;43.412;24.612;2023-05-18T06:26:31;99845.25;;;16.67;100.00
11672;BME280;5892;43.412;24.612;2023-05-18T06:28:58;99827.44;;;16.64;100.00
11672;BME280;5892;43.412;24.612;2023-05-18T06:31:25;99839.06;;;16.92;100.00
11672;BME280;5892;43.412;24.612;2023-05-18T06:33:53;99854.16;;;16.95;100.00
11672;BME280;5892;43.412;24.612;2023-05-18T06:36:20;99853.69;;;17.12;100.00
11672;BME280;5892;43.412;24.612;2023-05-18T06:38:47;99859.00;;;17.40;100.00
11672;BME280;5892;43.412;24.612;2023-05-18T06:41:14;99860.50;;;17.57;100.00
11672;BME280;5892;43.412;24.612;2023-05-18T06:43:42;99869.13;;;17.52;100.00
11672;BME280;5892;43.412;24.612;2023-05-18T06:46:09;99863.81;;;17.62;100.00
11672;BME280;5892;43.412;24.612;2023-05-18T06:48:43;99860.72;;;17.67;100.00
11672;BME280;5892;43.412;24.612;2023-05-18T06:51:12;99868.34;;;17.97;100.00
11672;BME280;5892;43.412;24.612;2023-05-18T06:53:40;99873.09;;;17.96;100.00
11672;BME280;5892;43.412;24.612;2023-05-18T06:56:07;99869.06;;;18.16;100.00
11672;BME280;5892;43.412;24.612;2023-05-18T06:58:36;99880.25;;;18.46;100.00
11672;BME280;5892;43.412;24.612;2023-05-18T07:01:03;99883.94;;;18.54;100.00
11672;BME280;5892;43.412;24.612;2023-05-18T07:03:29;99869.53;;;18.71;100.00
11672;BME280;5892;43.412;24.612;2023-05-18T07:05:57;99890.94;;;18.71;100.00
11672;BME280;5892;43.412;24.612;2023-05-18T07:08:25;99890.09;;;18.67;100.00
11672;BME280;5892;43.412;24.612;2023-05-18T07:10:52;99892.75;;;17.88;100.00
11672;BME280;5892;43.412;24.612;2023-05-18T07:13:22;99887.28;;;17.91;100.00
11672;BME280;5892;43.412;24.612;2023-05-18T07:15:49;99894.19;;;17.78;100.00
11672;BME280;5892;43.412;24.612;2023-05-18T07:18:16;99886.03;;;17.66;100.00
11672;BME280;5892;43.412;24.612;2023-05-18T07:20:42;99884.59;;;17.14;100.00
11672;BME280;5892;43.412;24.612;2023-05-18T07:23:12;99896.34;;;17.27;100.00
11672;BME280;5892;43.412;24.612;2023-05-18T07:25:40;99896.38;;;16.57;100.00
11672;BME280;5892;43.412;24.612;2023-05-18T07:28:08;99905.53;;;17.31;100.00
11672;BME280;5892;43.412;24.612;2023-05-18T07:30:35;99907.03;;;17.67;100.00
11672;BME280;5892;43.412;24.612;2023-05-18T07:33:03;99907.47;;;17.69;100.00
11672;BME280;5892;43.412;24.612;2023-05-18T07:35:30;99905.75;;;17.84;100.00
11672;BME280;5892;43.412;24.612;2023-05-18T07:37:57;99910.56;;;18.09;100.00
11672;BME280;5892;43.412;24.612;2023-05-18T07:40:24;99915.31;;;18.09;100.00
11672;BME280;5892;43.412;24.612;2023-05-18T07:42:52;99907.59;;;17.57;100.00
11672;BME280;5892;43.412;24.612;2023-05-18T07:45:19;99918.38;;;17.81;100.00
11672;BME280;5892;43.412;24.612;2023-05-18T07:47:46;99917.16;;;17.78;100.00
11672;BME280;5892;43.412;24.612;2023-05-18T07:50:13;99916.63;;;17.54;100.00
11672;BME280;5892;43.412;24.612;2023-05-18T07:52:40;99917.38;;;17.51;100.00
11672;BME280;5892;43.412;24.612;2023-05-18T07:55:07;99916.34;;;17.40;100.00
11672;BME280;5892;43.412;24.612;2023-05-18T07:57:34;99919.28;;;17.66;100.00
11672;BME280;5892;43.412;24.612;2023-05-18T08:00:04;99924.06;;;17.88;100.00
11672;BME280;5892;43.412;24.612;2023-05-18T08:02:33;99925.47;;;18.01;100.00
11672;BME280;5892;43.412;24.612;2023-05-18T08:05:00;99929.72;;;17.95;100.00
11672;BME280;5892;43.412;24.612;2023-05-18T08:07:27;99930.81;;;17.68;100.00
11672;BME280;5892;43.412;24.612;2023-05-18T08:09:54;99940.44;;;17.35;100.00
11672;BME280;5892;43.412;24.612;2023-05-18T08:12:22;99944.50;;;17.61;100.00
11672;BME280;5892;43.412;24.612;2023-05-18T08:14:49;99956.44;;;17.46;100.00
11672;BME280;5892;43.412;24.612;2023-05-18T08:17:17;99957.50;;;17.38;100.00
11672;BME280;5892;43.412;24.612;2023-05-18T08:19:44;99966.28;;;17.43;100.00
11672;BME280;5892;43.412;24.612;2023-05-18T08:22:11;99963.75;;;17.34;100.00
11672;BME280;5892;43.412;24.612;2023-05-18T08:24:38;99968.13;;;17.35;100.00
11672;BME280;5892;43.412;24.612;2023-05-18T08:27:05;99972.78;;;17.51;100.00
11672;BME280;5892;43.412;24.612;2023-05-18T08:29:34;99983.00;;;17.66;100.00
11672;BME280;5892;43.412;24.612;2023-05-18T08:32:01;99985.25;;;17.79;100.00
11672;BME280;5892;43.412;24.612;2023-05-18T08:34:29;99991.88;;;17.56;100.00
11672;BME280;5892;43.412;24.612;2023-05-18T08:36:56;99981.31;;;17.42;100.00
11672;BME280;5892;43.412;24.612;2023-05-18T08:39:23;99985.94;;;17.73;100.00
11672;BME280;5892;43.412;24.612;2023-05-18T08:41:56;99988.53;;;17.47;100.00
11672;BME280;5892;43.412;24.612;2023-05-18T08:44:28;99996.63;;;17.36;100.00
11672;BME280;5892;43.412;24.612;2023-05-18T08:46:56;99994.56;;;17.33;100.00
11672;BME280;5892;43.412;24.612;2023-05-18T08:49:25;100011.44;;;17.09;100.00
11672;BME280;5892;43.412;24.612;2023-05-18T08:51:56;99994.94;;;16.97;100.00
11672;BME280;5892;43.412;24.612;2023-05-18T08:54:23;100032.75;;;16.89;100.00
11672;BME280;5892;43.412;24.612;2023-05-18T08:56:51;100013.03;;;16.59;100.00
11672;BME280;5892;43.412;24.612;2023-05-18T08:59:22;100022.38;;;16.70;100.00
11672;BME280;5892;43.412;24.612;2023-05-18T09:01:49;100008.13;;;16.68;100.00
11672;BME280;5892;43.412;24.612;2023-05-18T09:04:17;100017.31;;;16.72;100.00
11672;BME280;5892;43.412;24.612;2023-05-18T09:06:45;100012.38;;;16.81;100.00
11672;BME280;5892;43.412;24.612;2023-05-18T09:09:14;99994.81;;;17.09;100.00
11672;BME280;5892;43.412;24.612;2023-05-18T09:11:42;99990.50;;;17.46;100.00
11672;BME280;5892;43.412;24.612;2023-05-18T09:14:09;99991.47;;;17.73;100.00
11672;BME280;5892;43.412;24.612;2023-05-18T09:16:36;100019.25;;;18.18;100.00
11672;BME280;5892;43.412;24.612;2023-05-18T09:19:03;99999.19;;;18.25;100.00
11672;BME280;5892;43.412;24.612;2023-05-18T09:21:33;100030.56;;;18.52;100.00
11672;BME280;5892;43.412;24.612;2023-05-18T09:24:02;100019.19;;;18.57;100.00
11672;BME280;5892;43.412;24.612;2023-05-18T09:26:31;100026.47;;;18.91;100.00
11672;BME280;5892;43.412;24.612;2023-05-18T09:28:58;100025.44;;;19.29;100.00
11672;BME280;5892;43.412;24.612;2023-05-18T09:31:25;100019.75;;;19.19;100.00
11672;BME280;5892;43.412;24.612;2023-05-18T09:33:53;100034.00;;;19.17;100.00
11672;BME280;5892;43.412;24.612;2023-05-18T09:36:24;100026.94;;;18.71;100.00
11672;BME280;5892;43.412;24.612;2023-05-18T09:38:53;100027.06;;;18.78;100.00
11672;BME280;5892;43.412;24.612;2023-05-18T09:41:20;100032.69;;;19.37;100.00
11672;BME280;5892;43.412;24.612;2023-05-18T09:43:48;100023.38;;;19.82;100.00
11672;BME280;5892;43.412;24.612;2023-05-18T09:46:17;100031.97;;;20.04;100.00
11672;BME280;5892;43.412;24.612;2023-05-18T09:48:46;100032.72;;;20.01;100.00
11672;BME280;5892;43.412;24.612;2023-05-18T09:51:14;100013.78;;;19.76;100.00
11672;BME280;5892;43.412;24.612;2023-05-18T09:53:42;100038.09;;;19.83;100.00
11672;BME280;5892;43.412;24.612;2023-05-18T09:56:16;100022.75;;;20.00;100.00
11672;BME280;5892;43.412;24.612;2023-05-18T09:58:44;100020.16;;;20.14;100.00
11672;BME280;5892;43.412;24.612;2023-05-18T10:01:12;100028.31;;;19.96;100.00
11672;BME280;5892;43.412;24.612;2023-05-18T10:03:39;99999.03;;;19.72;100.00
11672;BME280;5892;43.412;24.612;2023-05-18T10:06:07;100007.88;;;19.81;100.00
11672;BME280;5892;43.412;24.612;2023-05-18T10:08:35;99975.09;;;19.64;100.00
11672;BME280;5892;43.412;24.612;2023-05-18T10:11:03;99988.41;;;19.48;100.00
11672;BME280;5892;43.412;24.612;2023-05-18T10:13:31;99995.34;;;19.61;100.00
11672;BME280;5892;43.412;24.612;2023-05-18T10:16:01;99981.63;;;19.45;100.00
11672;BME280;5892;43.412;24.612;2023-05-18T10:18:30;100017.47;;;19.28;100.00
11672;BME280;5892;43.412;24.612;2023-05-18T10:20:58;100005.44;;;18.90;100.00
11672;BME280;5892;43.412;24.612;2023-05-18T10:23:30;99983.53;;;18.59;100.00
11672;BME280;5892;43.412;24.612;2023-05-18T10:25:57;99999.34;;;19.08;100.00
11672;BME280;5892;43.412;24.612;2023-05-18T10:28:26;100003.38;;;19.10;100.00
11672;BME280;5892;43.412;24.612;2023-05-18T10:30:55;100030.41;;;19.17;100.00
11672;BME280;5892;43.412;24.612;2023-05-18T10:33:23;100050.09;;;19.04;100.00
11672;BME280;5892;43.412;24.612;2023-05-18T10:35:53;100051.47;;;18.91;100.00
11672;BME280;5892;43.412;24.612;2023-05-18T10:38:21;100050.59;;;18.42;100.00
11672;BME280;5892;43.412;24.612;2023-05-18T10:40:49;100046.63;;;18.43;100.00
11672;BME280;5892;43.412;24.612;2023-05-18T10:43:20;100030.59;;;18.33;100.00
11672;BME280;5892;43.412;24.612;2023-05-18T10:45:51;100035.28;;;18.29;100.00
11672;BME280;5892;43.412;24.612;2023-05-18T10:48:20;100034.00;;;18.23;100.00
11672;BME280;5892;43.412;24.612;2023-05-18T10:50:48;100031.41;;;18.33;100.00
11672;BME280;5892;43.412;24.612;2023-05-18T10:53:18;100032.44;;;18.48;100.00
11672;BME280;5892;43.412;24.612;2023-05-18T10:55:46;100026.25;;;18.54;100.00
11672;BME280;5892;43.412;24.612;2023-05-18T10:58:14;100041.38;;;18.57;100.00
11672;BME280;5892;43.412;24.612;2023-05-18T11:00:46;100029.66;;;18.67;100.00
11672;BME280;5892;43.412;24.612;2023-05-18T11:03:15;100039.06;;;19.12;100.00
11672;BME280;5892;43.412;24.612;2023-05-18T11:05:42;100053.78;;;19.42;100.00
11672;BME280;5892;43.412;24.612;2023-05-18T11:08:09;100034.56;;;19.56;100.00
11672;BME280;5892;43.412;24.612;2023-05-18T11:10:42;100063.72;;;19.69;100.00
11672;BME280;5892;43.412;24.612;2023-05-18T11:13:12;100047.75;;;19.93;100.00
11672;BME280;5892;43.412;24.612;2023-05-18T11:16:02;100066.91;;;19.68;96.89
11672;BME280;5892;43.412;24.612;2023-05-18T11:18:40;100059.94;;;19.84;89.70
11672;BME280;5892;43.412;24.612;2023-05-18T11:21:28;100057.97;;;19.85;93.47
11672;BME280;5892;43.412;24.612;2023-05-18T11:24:18;100049.38;;;19.37;97.79
11672;BME280;5892;43.412;24.612;2023-05-18T11:26:48;100040.88;;;19.53;98.60
11672;BME280;5892;43.412;24.612;2023-05-18T11:29:17;100056.00;;;19.56;95.49
11672;BME280;5892;43.412;24.612;2023-05-18T11:31:45;100048.78;;;19.81;94.24
11672;BME280;5892;43.412;24.612;2023-05-18T11:34:35;100065.00;;;20.09;91.86
11672;BME280;5892;43.412;24.612;2023-05-18T11:37:02;100074.81;;;20.33;90.80
11672;BME280;5892;43.412;24.612;2023-05-18T11:39:31;100071.47;;;20.53;91.37
11672;BME280;5892;43.412;24.612;2023-05-18T11:42:01;100078.22;;;20.96;88.71
11672;BME280;5892;43.412;24.612;2023-05-18T11:44:28;100084.47;;;20.83;86.02
11672;BME280;5892;43.412;24.612;2023-05-18T11:47:00;100080.34;;;20.69;88.97
11672;BME280;5892;43.412;24.612;2023-05-18T11:49:29;100093.44;;;20.62;84.78
11672;BME280;5892;43.412;24.612;2023-05-18T11:52:04;100072.47;;;20.79;84.93
11672;BME280;5892;43.412;24.612;2023-05-18T11:54:43;100066.47;;;21.21;87.84
11672;BME280;5892;43.412;24.612;2023-05-18T11:57:13;100070.69;;;21.62;84.81
11672;BME280;5892;43.412;24.612;2023-05-18T11:59:42;100038.41;;;21.58;81.63
11672;BME280;5892;43.412;24.612;2023-05-18T12:02:11;100061.19;;;21.67;76.76
11672;BME280;5892;43.412;24.612;2023-05-18T12:04:45;100052.06;;;21.80;78.54
11672;BME280;5892;43.412;24.612;2023-05-18T12:07:12;100041.34;;;21.86;78.42
11672;BME280;5892;43.412;24.612;2023-05-18T12:09:40;99985.44;;;21.54;79.47
11672;BME280;5892;43.412;24.612;2023-05-18T12:12:09;100005.38;;;21.63;80.90
11672;BME280;5892;43.412;24.612;2023-05-18T12:14:39;100009.84;;;21.89;81.39
11672;BME280;5892;43.412;24.612;2023-05-18T12:17:07;100017.47;;;21.95;80.25
11672;BME280;5892;43.412;24.612;2023-05-18T12:19:41;100012.88;;;21.52;78.55
11672;BME280;5892;43.412;24.612;2023-05-18T12:22:09;100040.63;;;21.27;79.73
11672;BME280;5892;43.412;24.612;2023-05-18T12:24:36;100053.81;;;21.34;78.75
11672;BME280;5892;43.412;24.612;2023-05-18T12:27:05;100052.09;;;20.67;81.49
11672;BME280;5892;43.412;24.612;2023-05-18T12:29:32;100061.13;;;20.98;78.56
11672;BME280;5892;43.412;24.612;2023-05-18T12:32:04;100068.63;;;21.45;77.33
11672;BME280;5892;43.412;24.612;2023-05-18T12:34:31;100061.75;;;21.28;66.46
11672;BME280;5892;43.412;24.612;2023-05-18T12:36:58;100065.78;;;21.38;67.55
11672;BME280;5892;43.412;24.612;2023-05-18T12:39:25;100063.13;;;21.55;66.85
11672;BME280;5892;43.412;24.612;2023-05-18T12:41:52;100046.44;;;21.70;67.85
11672;BME280;5892;43.412;24.612;2023-05-18T12:44:20;100049.66;;;21.75;67.58
11672;BME280;5892;43.412;24.612;2023-05-18T12:46:47;100048.06;;;21.78;67.25
11672;BME280;5892;43.412;24.612;2023-05-18T12:49:17;100035.72;;;21.75;66.92
11672;BME280;5892;43.412;24.612;2023-05-18T12:51:43;100033.31;;;21.70;67.10
11672;BME280;5892;43.412;24.612;2023-05-18T12:54:10;100049.50;;;21.43;67.18